createdAt,value
2019-05-22T00:00:29.625Z,99.90
2019-05-22T00:02:34.914Z,99.90
2019-05-22T00:04:40.223Z,99.90
2019-05-22T00:06:46.117Z,99.90
2019-05-22T00:08:50.019Z,99.90
2019-05-22T00:10:55.344Z,99.90
2019-05-22T00:13:00.667Z,99.90
2019-05-22T00:15:05.302Z,99.90
2019-05-22T00:17:10.710Z,99.90
2019-05-22T00:19:15.313Z,99.90
2019-05-22T00:21:20.752Z,99.90
2019-05-22T00:23:26.271Z,99.90
2019-05-22T00:25:33.523Z,99.90
2019-05-22T00:27:38.359Z,99.90
2019-05-22T00:29:44.250Z,99.90
2019-05-22T00:31:48.388Z,99.90
2019-05-22T00:33:52.240Z,99.90
2019-05-22T00:35:58.615Z,99.90
2019-05-22T00:38:06.198Z,99.90
2019-05-22T00:40:12.147Z,99.90
2019-05-22T00:42:18.528Z,99.90
2019-05-22T00:44:23.147Z,99.90
2019-05-22T00:46:28.595Z,99.90
2019-05-22T00:48:34.399Z,99.90
2019-05-22T00:50:40.577Z,99.90
2019-05-22T00:53:02.744Z,99.90
2019-05-22T00:55:14.146Z,99.90
2019-05-22T00:57:31.933Z,99.90
2019-05-22T00:59:43.470Z,99.90
2019-05-22T01:01:55.261Z,99.90
2019-05-22T01:03:58.932Z,99.90
2019-05-22T01:06:04.676Z,99.90
2019-05-22T01:08:08.609Z,99.90
2019-05-22T01:10:12.513Z,99.90
2019-05-22T01:12:43.391Z,99.90
2019-05-22T01:14:47.107Z,99.90
2019-05-22T01:16:51.843Z,99.90
2019-05-22T01:18:58.952Z,99.90
2019-05-22T01:21:04.194Z,99.90
2019-05-22T01:23:09.325Z,99.90
2019-05-22T01:25:16.322Z,99.90
2019-05-22T01:27:20.885Z,99.90
2019-05-22T01:29:24.899Z,99.90
2019-05-22T01:31:33.831Z,99.90
2019-05-22T01:33:39.800Z,99.90
2019-05-22T01:35:51.032Z,99.90
2019-05-22T01:37:55.585Z,99.90
2019-05-22T01:40:12.314Z,99.90
2019-05-22T01:42:18.423Z,99.90
2019-05-22T01:44:23.243Z,99.90
2019-05-22T01:46:28.612Z,99.90
2019-05-22T01:48:40.641Z,99.90
2019-05-22T01:50:48.408Z,99.90
2019-05-22T01:52:52.360Z,99.90
2019-05-22T01:54:57.676Z,99.90
2019-05-22T01:57:07.290Z,99.90
2019-05-22T01:59:14.130Z,99.90
2019-05-22T02:01:22.216Z,99.90
2019-05-22T02:03:27.993Z,99.90
2019-05-22T02:05:33.459Z,99.90
2019-05-22T02:07:39.049Z,99.90
2019-05-22T02:09:44.408Z,99.90
2019-05-22T02:11:52.443Z,99.90
2019-05-22T02:14:12.525Z,99.90
2019-05-22T02:16:17.337Z,99.90
2019-05-22T02:18:23.280Z,99.90
2019-05-22T02:20:27.774Z,99.90
2019-05-22T02:22:32.233Z,99.90
2019-05-22T02:24:37.364Z,99.90
2019-05-22T02:26:42.802Z,99.90
2019-05-22T02:28:46.956Z,99.90
2019-05-22T02:30:52.261Z,99.90
2019-05-22T02:32:56.227Z,99.90
2019-05-22T02:35:01.081Z,99.90
2019-05-22T02:37:06.289Z,99.90
2019-05-22T02:39:13.828Z,99.90
2019-05-22T02:41:17.785Z,99.90
2019-05-22T02:43:22.735Z,99.90
2019-05-22T02:45:27.499Z,99.90
2019-05-22T02:47:31.840Z,99.90
2019-05-22T02:49:36.546Z,99.90
2019-05-22T02:51:40.331Z,99.90
2019-05-22T02:53:44.629Z,99.90
2019-05-22T02:55:50.247Z,99.90
2019-05-22T02:57:55.201Z,99.90
2019-05-22T03:00:01.060Z,99.90
2019-05-22T03:02:04.948Z,99.90
2019-05-22T03:04:10.314Z,99.90
2019-05-22T03:06:15.557Z,99.90
2019-05-22T03:08:21.964Z,99.90
2019-05-22T03:10:28.563Z,99.90
2019-05-22T03:12:34.648Z,99.90
2019-05-22T03:14:40.285Z,99.90
2019-05-22T03:16:56.509Z,99.90
2019-05-22T03:19:09.101Z,99.90
2019-05-22T03:21:07.463Z,99.90
2019-05-22T03:23:23.400Z,99.90
2019-05-22T03:25:28.566Z,99.90
2019-05-22T03:27:44.252Z,99.90
2019-05-22T03:29:53.586Z,99.90
2019-05-22T03:31:57.895Z,99.90
2019-05-22T03:34:01.992Z,99.90
2019-05-22T03:36:12.164Z,99.90
2019-05-22T03:38:18.021Z,99.90
2019-05-22T03:40:22.070Z,99.90
2019-05-22T03:42:25.917Z,99.90
2019-05-22T03:44:30.041Z,99.90
2019-05-22T03:46:37.299Z,99.90
2019-05-22T03:48:40.961Z,99.90
2019-05-22T03:50:44.663Z,99.90
2019-05-22T03:52:48.491Z,99.90
2019-05-22T03:54:52.515Z,99.90
2019-05-22T03:56:56.234Z,99.90
2019-05-22T03:59:00.945Z,99.90
2019-05-22T04:01:06.881Z,99.90
2019-05-22T04:03:11.322Z,99.90
2019-05-22T04:05:16.738Z,99.90
2019-05-22T04:07:21.528Z,99.90
2019-05-22T04:09:26.836Z,99.90
2019-05-22T04:11:34.061Z,99.90
2019-05-22T04:13:38.867Z,99.90
2019-05-22T04:15:42.530Z,99.90
2019-05-22T04:17:48.089Z,99.90
2019-05-22T04:19:52.102Z,99.90
2019-05-22T04:21:56.187Z,99.90
2019-05-22T04:24:00.805Z,99.90
2019-05-22T04:26:09.320Z,99.90
2019-05-22T04:28:13.627Z,99.90
2019-05-22T04:30:18.536Z,99.90
2019-05-22T04:32:26.825Z,99.90
2019-05-22T04:34:31.440Z,99.90
2019-05-22T04:36:35.957Z,99.90
2019-05-22T04:38:40.774Z,99.90
2019-05-22T04:40:49.500Z,99.90
2019-05-22T04:42:54.847Z,99.90
2019-05-22T04:45:16.057Z,99.90
2019-05-22T04:47:20.091Z,99.90
2019-05-22T04:49:24.115Z,99.90
2019-05-22T04:51:30.131Z,99.90
2019-05-22T04:53:34.327Z,99.90
2019-05-22T04:55:38.209Z,99.90
2019-05-22T04:57:42.455Z,99.90
2019-05-22T04:59:46.513Z,99.90
2019-05-22T05:01:51.092Z,99.90
2019-05-22T05:03:55.245Z,99.90
2019-05-22T05:05:59.284Z,99.90
2019-05-22T05:08:04.556Z,99.90
2019-05-22T05:10:08.583Z,99.90
2019-05-22T05:12:14.840Z,99.90
2019-05-22T05:14:18.529Z,99.90
2019-05-22T05:16:22.342Z,99.90
2019-05-22T05:18:26.744Z,99.90
2019-05-22T05:20:30.889Z,99.90
2019-05-22T05:22:42.742Z,99.90
2019-05-22T05:24:46.590Z,99.90
2019-05-22T05:26:51.579Z,99.90
2019-05-22T05:28:55.949Z,99.90
2019-05-22T05:30:59.729Z,99.90
2019-05-22T05:33:04.287Z,99.90
2019-05-22T05:35:10.927Z,99.90
2019-05-22T05:37:17.096Z,99.90
2019-05-22T05:39:40.278Z,99.90
2019-05-22T05:41:44.074Z,99.90
2019-05-22T05:43:48.716Z,99.90
2019-05-22T05:45:52.947Z,99.90
2019-05-22T05:47:57.810Z,99.90
2019-05-22T05:50:03.628Z,99.90
2019-05-22T05:52:08.379Z,99.90
2019-05-22T05:54:12.853Z,99.90
2019-05-22T05:56:16.704Z,99.90
2019-05-22T05:58:26.605Z,99.90
2019-05-22T06:00:35.155Z,99.90
2019-05-22T06:02:53.967Z,99.90
2019-05-22T06:04:45.046Z,99.90
2019-05-22T06:06:51.963Z,99.90
2019-05-22T06:09:00.613Z,99.90
2019-05-22T06:11:26.894Z,99.90
2019-05-22T06:13:30.854Z,99.90
2019-05-22T06:15:47.052Z,99.90
2019-05-22T06:18:08.807Z,99.90
2019-05-22T06:20:15.911Z,99.90
2019-05-22T06:22:22.480Z,99.90
2019-05-22T06:24:37.812Z,99.90
2019-05-22T06:26:44.482Z,99.90
2019-05-22T06:28:48.334Z,99.90
2019-05-22T06:30:54.297Z,99.90
2019-05-22T06:33:13.617Z,99.90
2019-05-22T06:35:19.330Z,99.90
2019-05-22T06:37:35.835Z,99.90
2019-05-22T06:39:41.756Z,99.90
2019-05-22T06:41:48.337Z,99.90
2019-05-22T06:43:57.989Z,99.90
2019-05-22T06:46:02.102Z,99.90
2019-05-22T06:48:06.865Z,99.90
2019-05-22T06:50:11.245Z,99.90
2019-05-22T06:52:15.693Z,99.90
2019-05-22T06:54:19.562Z,99.90
2019-05-22T06:56:23.877Z,99.90
2019-05-22T06:58:27.937Z,99.90
2019-05-22T07:00:32.128Z,99.90
2019-05-22T07:02:36.188Z,99.90
2019-05-22T07:04:40.208Z,99.90
2019-05-22T07:06:44.667Z,99.90
2019-05-22T07:08:48.457Z,99.90
2019-05-22T07:10:52.338Z,99.90
2019-05-22T07:12:57.869Z,99.90
2019-05-22T07:15:08.930Z,99.90
2019-05-22T07:17:14.147Z,99.90
2019-05-22T07:19:24.292Z,99.90
2019-05-22T07:21:34.052Z,99.90
2019-05-22T07:23:34.708Z,99.90
2019-05-22T07:25:40.382Z,99.90
2019-05-22T07:27:44.729Z,99.90
2019-05-22T07:29:48.534Z,99.90
2019-05-22T07:31:52.429Z,99.90
2019-05-22T07:33:56.459Z,99.90
2019-05-22T07:36:10.985Z,99.90
2019-05-22T07:38:06.023Z,99.90
2019-05-22T07:40:10.472Z,99.90
2019-05-22T07:42:14.889Z,99.90
2019-05-22T07:44:19.026Z,99.90
2019-05-22T07:46:23.811Z,99.90
2019-05-22T07:48:28.127Z,99.90
2019-05-22T07:50:37.297Z,99.90
2019-05-22T07:52:41.250Z,99.90
2019-05-22T07:54:45.906Z,99.90
2019-05-22T07:56:50.020Z,99.90
2019-05-22T07:58:53.916Z,99.90
2019-05-22T08:00:59.299Z,99.90
2019-05-22T08:03:05.526Z,99.90
2019-05-22T08:05:09.552Z,99.90
2019-05-22T08:07:15.347Z,99.90
2019-05-22T08:09:20.749Z,99.90
2019-05-22T08:11:26.522Z,99.90
2019-05-22T08:13:32.395Z,99.90
2019-05-22T08:15:36.373Z,99.90
2019-05-22T08:17:41.193Z,99.90
2019-05-22T08:19:45.121Z,99.90
2019-05-22T08:21:49.146Z,99.90
2019-05-22T08:23:54.969Z,99.90
2019-05-22T08:25:59.718Z,99.90
2019-05-22T08:28:04.172Z,99.90
2019-05-22T08:30:08.790Z,99.90
2019-05-22T08:32:12.678Z,99.90
2019-05-22T08:34:17.004Z,99.90
2019-05-22T08:36:21.252Z,99.90
2019-05-22T08:38:30.123Z,99.90
2019-05-22T08:40:34.587Z,99.90
2019-05-22T08:42:39.354Z,99.90
2019-05-22T08:44:43.148Z,99.90
2019-05-22T08:46:47.716Z,99.90
2019-05-22T08:48:55.169Z,99.90
2019-05-22T08:50:59.094Z,99.90
2019-05-22T08:53:04.168Z,99.90
2019-05-22T08:55:09.629Z,99.90
2019-05-22T08:57:15.116Z,99.90
2019-05-22T08:59:21.030Z,99.90
2019-05-22T09:01:24.901Z,99.90
2019-05-22T09:03:28.871Z,99.90
2019-05-22T09:05:32.755Z,99.90
2019-05-22T09:07:37.311Z,99.90
2019-05-22T09:09:41.232Z,99.90
2019-05-22T09:11:45.141Z,99.90
2019-05-22T09:13:49.040Z,99.90
2019-05-22T09:15:53.897Z,99.90
2019-05-22T09:17:57.649Z,99.90
2019-05-22T09:20:01.707Z,99.90
2019-05-22T09:22:07.558Z,98.00
2019-05-22T09:24:14.432Z,97.40
2019-05-22T09:26:18.484Z,98.30
2019-05-22T09:28:22.265Z,99.10
2019-05-22T09:30:26.139Z,99.90
2019-05-22T09:32:30.016Z,99.90
2019-05-22T09:34:34.773Z,98.40
2019-05-22T09:36:38.562Z,97.40
2019-05-22T09:38:43.428Z,97.70
2019-05-22T09:40:48.428Z,92.60
2019-05-22T09:42:52.417Z,93.60
2019-05-22T09:44:57.411Z,92.10
2019-05-22T09:47:01.372Z,94.60
2019-05-22T09:49:06.283Z,93.60
2019-05-22T09:51:10.393Z,96.70
2019-05-22T09:53:14.637Z,95.50
2019-05-22T09:55:19.024Z,94.20
2019-05-22T09:57:23.279Z,94.00
2019-05-22T09:59:27.317Z,83.80
2019-05-22T10:01:31.180Z,82.70
2019-05-22T10:03:35.652Z,83.90
2019-05-22T10:05:39.488Z,81.90
2019-05-22T10:07:57.788Z,76.70
2019-05-22T10:09:49.300Z,77.30
2019-05-22T10:11:54.193Z,83.00
2019-05-22T10:13:58.287Z,73.80
2019-05-22T10:16:02.082Z,60.10
2019-05-22T10:18:05.669Z,61.70
2019-05-22T10:20:11.003Z,49.00
2019-05-22T10:22:15.153Z,42.20
2019-05-22T10:24:20.281Z,47.90
2019-05-22T10:26:24.305Z,45.80
2019-05-22T10:28:28.124Z,47.80
2019-05-22T10:30:32.241Z,49.70
2019-05-22T10:32:36.107Z,47.90
2019-05-22T10:34:39.850Z,44.00
2019-05-22T10:36:45.101Z,45.60
2019-05-22T10:38:48.835Z,44.60
2019-05-22T10:40:52.677Z,43.10
2019-05-22T10:42:57.405Z,40.00
2019-05-22T10:45:03.018Z,34.00
2019-05-22T10:47:07.976Z,38.70
2019-05-22T10:49:11.740Z,32.90
2019-05-22T10:51:15.414Z,31.90
2019-05-22T10:53:32.833Z,29.20
2019-05-22T10:55:25.995Z,38.00
2019-05-22T10:57:29.918Z,29.30
2019-05-22T10:59:34.020Z,26.10
2019-05-22T11:01:38.241Z,23.70
2019-05-22T11:03:41.991Z,23.70
2019-05-22T11:06:03.829Z,29.40
2019-05-22T11:07:53.549Z,24.40
2019-05-22T11:09:57.281Z,22.50
2019-05-22T11:12:01.060Z,13.70
2019-05-22T11:14:09.306Z,15.60
2019-05-22T11:16:12.696Z,20.80
2019-05-22T11:18:16.751Z,23.10
2019-05-22T11:20:21.070Z,23.10
2019-05-22T11:22:25.500Z,23.60
2019-05-22T11:24:30.052Z,20.30
2019-05-22T11:26:33.927Z,17.20
2019-05-22T11:28:38.594Z,18.40
2019-05-22T11:30:42.613Z,18.60
2019-05-22T11:32:46.868Z,19.70
2019-05-22T11:34:50.819Z,15.30
2019-05-22T11:36:55.262Z,12.70
2019-05-22T11:38:59.149Z,14.60
2019-05-22T11:41:03.736Z,14.10
2019-05-22T11:43:08.151Z,8.00
2019-05-22T11:45:13.153Z,10.30
2019-05-22T11:47:17.687Z,4.90
2019-05-22T11:49:21.422Z,8.20
2019-05-22T11:51:25.244Z,10.70
2019-05-22T11:53:29.527Z,7.30
2019-05-22T11:55:43.796Z,13.00
2019-05-22T11:57:40.292Z,10.40
2019-05-22T11:59:45.151Z,7.50
2019-05-22T12:01:49.057Z,9.70
2019-05-22T12:03:53.256Z,10.40
2019-05-22T12:05:59.099Z,3.50
2019-05-22T12:08:02.818Z,2.30
2019-05-22T12:10:07.797Z,2.10
2019-05-22T12:12:12.222Z,1.80
2019-05-22T12:14:18.582Z,9.60
2019-05-22T12:16:23.285Z,8.40
2019-05-22T12:18:27.800Z,10.40
2019-05-22T12:20:32.768Z,4.80
2019-05-22T12:22:36.700Z,4.10
2019-05-22T12:24:40.382Z,1.00
2019-05-22T12:26:44.267Z,1.00
2019-05-22T12:28:49.519Z,1.00
2019-05-22T12:30:53.291Z,3.40
2019-05-22T12:32:59.046Z,1.00
2019-05-22T12:35:02.913Z,1.80
2019-05-22T12:37:08.639Z,7.30
2019-05-22T12:39:13.597Z,7.20
2019-05-22T12:41:19.786Z,6.00
2019-05-22T12:43:24.764Z,9.40
2019-05-22T12:45:29.879Z,1.00
2019-05-22T12:47:34.666Z,1.00
2019-05-22T12:49:39.153Z,1.00
2019-05-22T12:51:44.300Z,1.00
2019-05-22T12:53:48.432Z,1.00
2019-05-22T12:55:53.247Z,1.00
2019-05-22T12:57:57.022Z,3.80
2019-05-22T13:00:02.809Z,3.40
2019-05-22T13:02:09.956Z,4.80
2019-05-22T13:04:14.412Z,5.40
2019-05-22T13:06:18.238Z,4.80
2019-05-22T13:08:22.099Z,5.10
2019-05-22T13:10:27.361Z,3.60
2019-05-22T13:12:31.260Z,3.70
2019-05-22T13:14:35.701Z,1.00
2019-05-22T13:16:41.448Z,2.30
2019-05-22T13:18:46.043Z,8.10
2019-05-22T13:20:51.408Z,1.00
2019-05-22T13:22:56.901Z,1.40
2019-05-22T13:25:02.912Z,1.00
2019-05-22T13:27:15.601Z,1.00
2019-05-22T13:29:20.016Z,1.00
2019-05-22T13:31:24.860Z,1.00
2019-05-22T13:33:29.357Z,1.00
2019-05-22T13:35:52.973Z,1.00
2019-05-22T13:37:58.061Z,1.00
2019-05-22T13:40:02.641Z,1.00
2019-05-22T13:42:06.940Z,2.30
2019-05-22T13:44:11.601Z,2.70
2019-05-22T13:46:15.714Z,1.00
2019-05-22T13:48:19.557Z,1.00
2019-05-22T13:50:28.296Z,1.00
2019-05-22T13:52:30.670Z,1.80
2019-05-22T13:54:34.634Z,2.30
2019-05-22T13:56:40.240Z,1.00
2019-05-22T13:58:44.825Z,1.00
2019-05-22T14:00:49.832Z,1.00
2019-05-22T14:02:56.836Z,1.00
2019-05-22T14:05:00.738Z,1.00
2019-05-22T14:07:07.390Z,1.00
2019-05-22T14:09:14.104Z,1.00
2019-05-22T14:11:17.794Z,1.00
2019-05-22T14:13:23.463Z,1.00
2019-05-22T14:15:47.325Z,1.00
2019-05-22T14:17:33.211Z,1.00
2019-05-22T14:19:37.187Z,1.00
2019-05-22T14:21:50.927Z,1.00
2019-05-22T14:23:51.837Z,1.00
2019-05-22T14:25:55.808Z,1.00
2019-05-22T14:27:59.540Z,1.00
2019-05-22T14:30:05.409Z,1.00
2019-05-22T14:32:12.866Z,1.00
2019-05-22T14:34:16.514Z,1.00
2019-05-22T14:36:20.558Z,1.00
2019-05-22T14:38:25.010Z,1.00
2019-05-22T14:40:30.643Z,1.00
2019-05-22T14:42:34.912Z,1.00
2019-05-22T14:44:38.768Z,1.00
2019-05-22T14:46:42.476Z,1.00
2019-05-22T14:48:46.255Z,1.00
2019-05-22T14:50:50.175Z,1.00
2019-05-22T14:52:53.961Z,1.00
2019-05-22T14:54:57.929Z,1.00
2019-05-22T14:57:01.866Z,1.00
2019-05-22T14:59:06.264Z,1.00
2019-05-22T15:01:10.403Z,1.00
2019-05-22T15:03:14.570Z,1.00
2019-05-22T15:05:18.473Z,1.00
2019-05-22T15:07:22.297Z,1.00
2019-05-22T15:09:26.101Z,1.00
2019-05-22T15:11:30.028Z,1.00
2019-05-22T15:13:34.245Z,1.00
2019-05-22T15:15:40.572Z,1.00
2019-05-22T15:17:43.651Z,1.00
2019-05-22T15:19:47.560Z,1.00
2019-05-22T15:21:51.332Z,1.00
2019-05-22T15:23:55.792Z,1.00
2019-05-22T15:26:00.714Z,1.00
2019-05-22T15:28:04.710Z,1.00
2019-05-22T15:30:09.862Z,1.00
2019-05-22T15:32:14.041Z,1.00
2019-05-22T15:34:18.702Z,1.00
2019-05-22T15:36:24.293Z,1.00
2019-05-22T15:38:30.213Z,1.00
2019-05-22T15:40:34.825Z,1.00
2019-05-22T15:42:43.967Z,1.00
2019-05-22T15:44:47.937Z,1.00
2019-05-22T15:46:52.573Z,1.00
2019-05-22T15:48:56.872Z,1.00
2019-05-22T15:51:04.664Z,1.00
2019-05-22T15:53:14.935Z,1.00
2019-05-22T15:55:17.218Z,1.00
2019-05-22T15:57:21.094Z,1.00
2019-05-22T15:59:25.814Z,1.00
2019-05-22T16:01:31.107Z,1.00
2019-05-22T16:03:35.116Z,1.00
2019-05-22T16:05:42.542Z,1.00
2019-05-22T16:07:50.732Z,1.00
2019-05-22T16:09:54.462Z,1.00
2019-05-22T16:11:59.322Z,1.00
2019-05-22T16:14:03.538Z,1.00
2019-05-22T16:16:09.773Z,1.00
2019-05-22T16:18:14.821Z,1.00
2019-05-22T16:20:22.070Z,1.00
2019-05-22T16:22:26.482Z,1.00
2019-05-22T16:24:30.221Z,1.00
2019-05-22T16:26:34.097Z,1.00
2019-05-22T16:28:39.626Z,1.00
2019-05-22T16:30:44.580Z,1.00
2019-05-22T16:32:48.408Z,1.00
2019-05-22T16:34:52.692Z,1.00
2019-05-22T16:36:56.728Z,1.00
2019-05-22T16:39:00.550Z,1.00
2019-05-22T16:41:05.579Z,1.00
2019-05-22T16:43:09.633Z,1.00
2019-05-22T16:45:15.377Z,1.00
2019-05-22T16:47:20.072Z,1.00
2019-05-22T16:49:24.160Z,1.00
2019-05-22T16:51:28.764Z,1.00
2019-05-22T16:53:33.225Z,1.00
2019-05-22T16:55:38.877Z,1.00
2019-05-22T16:57:43.495Z,1.00
2019-05-22T16:59:47.920Z,1.00
2019-05-22T17:01:59.162Z,1.00
2019-05-22T17:04:00.719Z,1.00
2019-05-22T17:06:04.767Z,1.00
2019-05-22T17:08:10.012Z,1.00
2019-05-22T17:10:14.925Z,1.00
2019-05-22T17:12:18.854Z,1.00
2019-05-22T17:14:25.046Z,1.00
2019-05-22T17:16:30.940Z,1.00
2019-05-22T17:18:46.629Z,1.00
2019-05-22T17:20:41.550Z,1.00
2019-05-22T17:22:45.519Z,1.00
2019-05-22T17:24:49.257Z,1.00
2019-05-22T17:26:54.741Z,1.00
2019-05-22T17:28:58.702Z,1.00
2019-05-22T17:31:02.537Z,1.00
2019-05-22T17:33:07.984Z,1.00
2019-05-22T17:35:13.593Z,1.00
2019-05-22T17:37:19.290Z,1.00
2019-05-22T17:39:24.014Z,1.00
2019-05-22T17:41:29.419Z,1.00
2019-05-22T17:43:34.236Z,1.00
2019-05-22T17:45:40.314Z,1.00
2019-05-22T17:47:45.707Z,1.00
2019-05-22T17:49:49.634Z,1.00
2019-05-22T17:51:53.884Z,1.00
2019-05-22T17:53:57.650Z,1.00
2019-05-22T17:56:01.697Z,1.00
2019-05-22T17:58:07.193Z,1.00
2019-05-22T18:00:31.646Z,1.00
2019-05-22T18:02:36.471Z,1.00
2019-05-22T18:04:40.244Z,1.00
2019-05-22T18:06:43.991Z,1.00
2019-05-22T18:08:47.905Z,1.00
2019-05-22T18:10:52.212Z,1.00
2019-05-22T18:12:55.951Z,1.00
2019-05-22T18:14:59.998Z,1.00
2019-05-22T18:17:50.837Z,1.00
2019-05-22T18:21:18.231Z,1.00
2019-05-22T18:23:37.866Z,1.00
2019-05-22T18:25:40.067Z,1.00
2019-05-22T18:27:39.540Z,1.00
2019-05-22T18:29:43.320Z,1.00
2019-05-22T18:31:47.183Z,1.00
2019-05-22T18:33:50.825Z,1.00
2019-05-22T18:35:54.678Z,1.00
2019-05-22T18:37:58.712Z,1.00
2019-05-22T18:40:03.260Z,1.20
2019-05-22T18:42:06.998Z,2.00
2019-05-22T18:44:11.518Z,2.90
2019-05-22T18:46:15.506Z,2.80
2019-05-22T18:48:19.190Z,3.10
2019-05-22T18:50:23.136Z,4.20
2019-05-22T18:52:40.022Z,4.60
2019-05-22T18:54:32.245Z,5.50
2019-05-22T18:56:35.991Z,5.90
2019-05-22T18:58:40.191Z,6.80
2019-05-22T19:00:43.944Z,7.00
2019-05-22T19:02:47.859Z,6.60
2019-05-22T19:04:51.601Z,6.80
2019-05-22T19:06:56.144Z,6.90
2019-05-22T19:08:59.869Z,7.10
2019-05-22T19:11:04.902Z,6.30
2019-05-22T19:13:08.554Z,7.60
2019-05-22T19:15:14.012Z,7.60
2019-05-22T19:17:21.240Z,8.20
2019-05-22T19:19:28.163Z,8.00
2019-05-22T19:21:30.143Z,8.50
2019-05-22T19:23:34.031Z,9.40
2019-05-22T19:25:37.738Z,10.70
2019-05-22T19:27:41.904Z,10.70
2019-05-22T19:29:45.966Z,10.00
2019-05-22T19:31:49.638Z,8.60
2019-05-22T19:33:53.230Z,8.90
2019-05-22T19:35:57.774Z,9.50
2019-05-22T19:38:02.008Z,10.50
2019-05-22T19:40:08.328Z,11.50
2019-05-22T19:42:12.127Z,11.70
2019-05-22T19:44:16.750Z,12.50
2019-05-22T19:46:20.537Z,13.00
2019-05-22T19:48:25.485Z,13.90
2019-05-22T19:50:29.211Z,14.00
2019-05-22T19:52:41.582Z,15.30
2019-05-22T19:54:46.531Z,16.50
2019-05-22T19:56:49.351Z,16.40
2019-05-22T19:58:53.713Z,16.90
2019-05-22T20:00:57.522Z,18.00
2019-05-22T20:03:02.331Z,19.30
2019-05-22T20:05:07.685Z,19.50
2019-05-22T20:07:13.652Z,20.50
2019-05-22T20:09:19.500Z,20.40
2019-05-22T20:11:23.437Z,22.30
2019-05-22T20:13:27.249Z,21.40
2019-05-22T20:15:31.476Z,22.90
2019-05-22T20:17:37.068Z,24.00
2019-05-22T20:19:41.370Z,23.60
2019-05-22T20:21:45.466Z,24.80
2019-05-22T20:23:49.805Z,25.10
2019-05-22T20:25:53.728Z,25.40
2019-05-22T20:27:59.264Z,25.60
2019-05-22T20:30:03.546Z,26.60
2019-05-22T20:32:08.741Z,26.80
2019-05-22T20:34:12.697Z,27.10
2019-05-22T20:36:17.086Z,27.70
2019-05-22T20:38:21.232Z,29.30
2019-05-22T20:40:25.996Z,29.70
2019-05-22T20:42:31.509Z,30.20
2019-05-22T20:44:35.249Z,30.40
2019-05-22T20:46:40.966Z,31.40
2019-05-22T20:48:44.926Z,31.40
2019-05-22T20:50:48.899Z,31.20
2019-05-22T20:52:52.811Z,31.70
2019-05-22T20:54:57.834Z,32.00
2019-05-22T20:57:04.632Z,32.20
2019-05-22T20:59:09.361Z,32.80
2019-05-22T21:01:15.272Z,32.50
2019-05-22T21:03:21.644Z,32.80
2019-05-22T21:05:25.674Z,34.00
2019-05-22T21:07:35.162Z,34.10
2019-05-22T21:09:39.217Z,34.90
2019-05-22T21:11:43.689Z,35.40
2019-05-22T21:13:48.365Z,36.20
2019-05-22T21:15:53.569Z,35.80
2019-05-22T21:17:59.053Z,36.50
2019-05-22T21:20:03.398Z,36.90
2019-05-22T21:22:08.026Z,37.50
2019-05-22T21:24:12.837Z,38.10
2019-05-22T21:26:18.215Z,38.70
2019-05-22T21:28:22.699Z,39.60
2019-05-22T21:30:26.795Z,38.70
2019-05-22T21:32:30.910Z,39.60
2019-05-22T21:34:34.757Z,40.00
2019-05-22T21:36:38.876Z,39.70
2019-05-22T21:38:42.724Z,40.30
2019-05-22T21:40:49.921Z,40.60
2019-05-22T21:42:55.919Z,40.00
2019-05-22T21:44:59.769Z,40.20
2019-05-22T21:47:05.411Z,39.60
2019-05-22T21:49:12.297Z,39.30
2019-05-22T21:51:17.086Z,39.80
2019-05-22T21:53:20.867Z,40.40
2019-05-22T21:55:27.623Z,41.10
2019-05-22T21:57:32.638Z,42.80
2019-05-22T21:59:36.647Z,41.90
2019-05-22T22:01:42.641Z,41.80
2019-05-22T22:03:54.618Z,42.30
2019-05-22T22:06:00.212Z,43.40
2019-05-22T22:08:04.043Z,42.60
2019-05-22T22:10:08.303Z,43.00
2019-05-22T22:12:14.957Z,42.30
2019-05-22T22:14:19.456Z,43.40
2019-05-22T22:16:23.661Z,44.60
2019-05-22T22:18:27.361Z,43.30
2019-05-22T22:20:31.627Z,45.60
2019-05-22T22:22:36.872Z,46.00
2019-05-22T22:24:40.792Z,46.70
2019-05-22T22:26:44.685Z,48.30
2019-05-22T22:28:48.848Z,50.10
2019-05-22T22:30:55.131Z,52.40
2019-05-22T22:33:01.570Z,54.30
2019-05-22T22:35:08.691Z,55.00
2019-05-22T22:37:13.807Z,54.90
2019-05-22T22:39:19.304Z,55.90
2019-05-22T22:41:23.430Z,56.40
2019-05-22T22:43:30.756Z,57.70
2019-05-22T22:45:47.031Z,59.70
2019-05-22T22:47:51.591Z,61.40
2019-05-22T22:49:57.085Z,62.30
2019-05-22T22:52:01.797Z,61.70
2019-05-22T22:54:07.961Z,62.80
2019-05-22T22:56:12.062Z,63.00
2019-05-22T22:58:17.940Z,62.80
2019-05-22T23:00:24.225Z,63.70
2019-05-22T23:02:31.639Z,61.80
2019-05-22T23:04:35.783Z,62.60
2019-05-22T23:06:40.387Z,63.40
2019-05-22T23:08:45.138Z,65.60
2019-05-22T23:10:50.225Z,70.20
2019-05-22T23:12:55.001Z,71.10
2019-05-22T23:15:00.333Z,74.30
2019-05-22T23:17:05.623Z,75.60
2019-05-22T23:19:16.059Z,75.80
2019-05-22T23:21:20.291Z,74.90
2019-05-22T23:23:23.162Z,74.30
2019-05-22T23:25:27.404Z,75.40
2019-05-22T23:27:33.252Z,76.00
2019-05-22T23:29:37.596Z,74.30
2019-05-22T23:31:41.338Z,78.00
2019-05-22T23:33:45.195Z,79.00
2019-05-22T23:35:50.334Z,79.50
2019-05-22T23:37:54.171Z,79.60
2019-05-22T23:40:00.002Z,79.90
2019-05-22T23:42:08.434Z,79.50
2019-05-22T23:44:14.464Z,78.70
2019-05-22T23:46:18.343Z,78.30
2019-05-22T23:48:22.968Z,78.50
2019-05-22T23:50:26.661Z,78.40
2019-05-22T23:52:31.217Z,77.30
2019-05-22T23:54:36.265Z,76.00
2019-05-22T23:56:40.129Z,75.50
2019-05-22T23:58:52.615Z,77.20
